createdAt,value
2023-05-22T00:00:26.763Z,63.60
2023-05-22T00:03:10.862Z,64.03
2023-05-22T00:05:58.991Z,64.12
2023-05-22T00:08:43.099Z,64.42
2023-05-22T00:11:27.112Z,65.36
2023-05-22T00:14:10.996Z,65.60
2023-05-22T00:16:55.733Z,65.76
2023-05-22T00:19:39.850Z,66.29
2023-05-22T00:22:25.140Z,66.13
2023-05-22T00:25:10.411Z,66.35
2023-05-22T00:27:54.378Z,67.17
2023-05-22T00:30:39.090Z,67.34
2023-05-22T00:33:23.158Z,67.23
2023-05-22T00:36:07.470Z,67.92
2023-05-22T00:38:52.594Z,68.15
2023-05-22T00:41:36.884Z,68.16
2023-05-22T00:44:20.773Z,68.30
2023-05-22T00:47:04.763Z,68.70
2023-05-22T00:49:48.649Z,69.16
2023-05-22T00:52:33.080Z,69.28
2023-05-22T00:55:18.590Z,69.50
2023-05-22T00:58:07.715Z,70.43
2023-05-22T01:00:52.430Z,70.89
2023-05-22T01:03:37.604Z,70.79
2023-05-22T01:06:22.648Z,71.09
2023-05-22T01:09:06.580Z,71.24
2023-05-22T01:12:00.543Z,71.63
2023-05-22T01:14:53.858Z,71.64
2023-05-22T01:17:46.460Z,71.59
2023-05-22T01:20:37.418Z,72.30
2023-05-22T01:23:44.537Z,73.04
2023-05-22T01:27:03.883Z,73.57
2023-05-22T01:29:57.159Z,74.31
2023-05-22T01:32:45.132Z,75.02
2023-05-22T01:35:31.135Z,75.61
2023-05-22T01:38:15.984Z,75.93
2023-05-22T01:41:00.036Z,76.11
2023-05-22T01:43:44.339Z,76.77
2023-05-22T01:46:28.911Z,76.74
2023-05-22T01:49:14.682Z,76.39
2023-05-22T01:52:04.971Z,76.26
2023-05-22T01:54:55.706Z,75.82
2023-05-22T01:57:46.447Z,75.69
2023-05-22T02:00:33.584Z,75.45
2023-05-22T02:03:20.797Z,75.65
2023-05-22T02:06:14.400Z,75.65
2023-05-22T02:08:58.777Z,75.81
2023-05-22T02:11:43.750Z,75.41
2023-05-22T02:14:29.125Z,76.38
2023-05-22T02:17:13.308Z,76.62
2023-05-22T02:19:57.370Z,76.87
2023-05-22T02:22:44.571Z,77.10
2023-05-22T02:25:28.946Z,78.02
2023-05-22T02:28:13.064Z,78.82
2023-05-22T02:30:57.152Z,78.05
2023-05-22T02:33:41.179Z,78.17
2023-05-22T02:36:26.304Z,78.28
2023-05-22T02:39:11.999Z,79.04
2023-05-22T02:41:56.380Z,78.84
2023-05-22T02:44:40.506Z,78.57
2023-05-22T02:47:24.396Z,78.83
2023-05-22T02:50:09.297Z,78.86
2023-05-22T02:52:53.535Z,78.52
2023-05-22T02:55:38.946Z,79.23
2023-05-22T02:58:23.443Z,79.68
2023-05-22T03:01:09.209Z,80.10
2023-05-22T03:03:55.094Z,79.76
2023-05-22T03:06:39.317Z,79.54
2023-05-22T03:09:23.456Z,79.71
2023-05-22T03:12:10.654Z,80.05
2023-05-22T03:14:54.574Z,80.32
2023-05-22T03:17:38.903Z,79.88
2023-05-22T03:20:23.048Z,79.66
2023-05-22T03:23:07.083Z,79.50
2023-05-22T03:25:51.319Z,79.98
2023-05-22T03:28:37.176Z,80.24
2023-05-22T03:31:21.509Z,79.72
2023-05-22T03:34:17.923Z,79.90
2023-05-22T03:37:04.714Z,80.16
2023-05-22T03:39:48.681Z,80.38
2023-05-22T03:42:41.759Z,80.88
2023-05-22T03:45:27.068Z,79.94
2023-05-22T03:48:12.545Z,79.63
2023-05-22T03:50:56.995Z,77.97
2023-05-22T03:53:40.897Z,78.51
2023-05-22T03:56:24.957Z,80.29
2023-05-22T03:59:09.047Z,79.41
2023-05-22T04:01:54.355Z,80.88
2023-05-22T04:04:39.162Z,80.65
2023-05-22T04:07:23.120Z,80.15
2023-05-22T04:10:07.996Z,79.11
2023-05-22T04:12:52.053Z,79.60
2023-05-22T04:15:36.715Z,80.21
2023-05-22T04:18:22.267Z,80.09
2023-05-22T04:21:09.930Z,80.27
2023-05-22T04:23:53.883Z,79.93
2023-05-22T04:26:39.984Z,79.23
2023-05-22T04:29:25.718Z,79.57
2023-05-22T04:32:10.794Z,78.58
2023-05-22T04:34:58.525Z,78.57
2023-05-22T04:37:45.631Z,77.60
2023-05-22T04:40:30.532Z,76.96
2023-05-22T04:43:14.369Z,77.39
2023-05-22T04:45:58.299Z,76.72
2023-05-22T04:48:42.366Z,75.90
2023-05-22T04:51:27.730Z,75.62
2023-05-22T04:54:11.754Z,75.61
2023-05-22T04:56:56.765Z,75.02
2023-05-22T04:59:41.655Z,75.06
2023-05-22T05:02:26.331Z,74.33
2023-05-22T05:05:10.848Z,75.01
2023-05-22T05:07:56.777Z,74.82
2023-05-22T05:10:41.153Z,73.50
2023-05-22T05:13:25.268Z,72.93
2023-05-22T05:16:09.589Z,73.23
2023-05-22T05:18:55.682Z,71.96
2023-05-22T05:21:40.086Z,71.06
2023-05-22T05:24:25.600Z,71.11
2023-05-22T05:27:09.612Z,70.48
2023-05-22T05:29:54.449Z,70.57
2023-05-22T05:32:49.699Z,70.52
2023-05-22T05:35:43.090Z,70.09
2023-05-22T05:38:29.446Z,69.39
2023-05-22T05:41:15.392Z,69.66
2023-05-22T05:44:01.528Z,68.00
2023-05-22T05:46:48.753Z,66.91
2023-05-22T05:49:35.950Z,65.83
2023-05-22T05:52:21.119Z,65.43
2023-05-22T05:55:06.445Z,65.25
2023-05-22T05:57:52.128Z,65.55
2023-05-22T06:00:43.451Z,63.55
2023-05-22T06:03:27.646Z,62.66
2023-05-22T06:06:26.222Z,61.57
2023-05-22T06:09:33.474Z,61.73
2023-05-22T06:12:24.849Z,60.22
2023-05-22T06:15:13.151Z,59.08
2023-05-22T06:17:57.576Z,57.99
2023-05-22T06:20:41.927Z,57.48
2023-05-22T06:23:26.485Z,56.41
2023-05-22T06:26:12.298Z,56.29
2023-05-22T06:28:58.172Z,52.96
2023-05-22T06:31:44.316Z,52.96
2023-05-22T06:34:29.876Z,52.84
2023-05-22T06:37:16.185Z,51.86
2023-05-22T06:40:02.141Z,50.67
2023-05-22T06:42:59.036Z,50.91
2023-05-22T06:45:46.207Z,50.76
2023-05-22T06:48:37.646Z,48.65
2023-05-22T06:51:29.580Z,46.49
2023-05-22T06:54:21.533Z,47.03
2023-05-22T06:57:11.050Z,47.77
2023-05-22T06:59:55.009Z,46.59
2023-05-22T07:02:57.466Z,46.20
2023-05-22T07:05:48.484Z,45.27
2023-05-22T07:08:32.508Z,44.88
2023-05-22T07:11:17.382Z,45.44
2023-05-22T07:14:02.434Z,46.49
2023-05-22T07:16:46.610Z,45.52
2023-05-22T07:19:36.710Z,45.85
2023-05-22T07:22:23.425Z,45.62
2023-05-22T07:25:08.796Z,45.49
2023-05-22T07:27:52.966Z,45.32
2023-05-22T07:30:39.936Z,45.24
2023-05-22T07:33:24.257Z,45.27
2023-05-22T07:36:09.766Z,44.09
2023-05-22T07:38:57.562Z,42.27
2023-05-22T07:41:42.273Z,41.02
2023-05-22T07:44:29.827Z,39.51
2023-05-22T07:47:13.753Z,40.32
2023-05-22T07:49:58.498Z,41.31
2023-05-22T07:52:42.745Z,40.77
2023-05-22T07:55:28.471Z,40.72
2023-05-22T07:58:12.551Z,40.09
2023-05-22T08:00:59.376Z,40.06
2023-05-22T08:03:43.712Z,40.61
2023-05-22T08:06:28.152Z,40.48
2023-05-22T08:09:11.980Z,40.38
2023-05-22T08:11:57.540Z,39.84
2023-05-22T08:14:41.446Z,40.58
2023-05-22T08:17:25.499Z,37.55
2023-05-22T08:20:11.768Z,39.63
2023-05-22T08:22:55.959Z,38.08
2023-05-22T08:25:39.908Z,36.85
2023-05-22T08:28:25.524Z,37.14
2023-05-22T08:31:09.565Z,38.44
2023-05-22T08:33:53.684Z,37.56
2023-05-22T08:36:37.748Z,39.51
2023-05-22T08:39:21.804Z,39.00
2023-05-22T08:42:07.055Z,37.76
2023-05-22T08:44:52.493Z,36.39
2023-05-22T08:47:37.889Z,35.19
2023-05-22T08:50:22.504Z,35.09
2023-05-22T08:53:09.487Z,34.76
2023-05-22T08:55:54.730Z,35.06
2023-05-22T08:58:39.441Z,35.55
2023-05-22T09:01:25.506Z,35.48
2023-05-22T09:04:09.784Z,34.76
2023-05-22T09:06:55.271Z,36.09
2023-05-22T09:09:39.803Z,34.87
2023-05-22T09:12:23.784Z,35.65
2023-05-22T09:15:12.271Z,36.08
2023-05-22T09:17:57.979Z,36.56
2023-05-22T09:20:42.246Z,35.90
2023-05-22T09:23:29.020Z,34.40
2023-05-22T09:26:12.996Z,35.22
2023-05-22T09:28:57.262Z,36.14
2023-05-22T09:31:45.136Z,36.36
2023-05-22T09:34:33.614Z,36.81
2023-05-22T09:37:18.675Z,36.38
2023-05-22T09:40:07.297Z,36.25
2023-05-22T09:42:51.398Z,36.27
2023-05-22T09:45:36.617Z,35.66
2023-05-22T09:48:21.557Z,36.48
2023-05-22T09:51:08.773Z,36.88
2023-05-22T09:53:56.382Z,35.93
2023-05-22T09:56:42.140Z,37.10
2023-05-22T09:59:30.556Z,37.11
2023-05-22T10:02:15.010Z,35.69
2023-05-22T10:05:01.132Z,35.69
2023-05-22T10:07:50.107Z,35.49
2023-05-22T10:10:35.798Z,35.82
2023-05-22T10:13:21.026Z,35.56
2023-05-22T10:16:07.827Z,35.41
2023-05-22T10:18:52.657Z,36.61
2023-05-22T10:21:38.040Z,36.80
2023-05-22T10:24:25.209Z,36.70
2023-05-22T10:27:09.146Z,38.89
2023-05-22T10:29:59.323Z,46.15
2023-05-22T10:32:54.791Z,52.01
2023-05-22T10:35:45.891Z,54.37
2023-05-22T10:39:04.384Z,53.86
2023-05-22T10:41:50.034Z,51.28
2023-05-22T10:44:35.065Z,50.90
2023-05-22T10:47:19.563Z,49.78
2023-05-22T10:50:10.085Z,47.26
2023-05-22T10:53:22.021Z,51.18
2023-05-22T10:56:13.774Z,51.23
2023-05-22T10:59:02.826Z,50.69
2023-05-22T11:01:47.032Z,53.82
2023-05-22T11:04:36.285Z,53.77
2023-05-22T11:07:20.337Z,55.62
2023-05-22T11:10:04.825Z,56.36
2023-05-22T11:12:49.081Z,55.97
2023-05-22T11:15:34.808Z,52.47
2023-05-22T11:18:19.362Z,54.49
2023-05-22T11:21:04.881Z,52.97
2023-05-22T11:23:48.992Z,57.63
2023-05-22T11:26:33.326Z,61.33
2023-05-22T11:29:17.741Z,58.14
2023-05-22T11:32:03.593Z,56.21
2023-05-22T11:34:50.224Z,55.26
2023-05-22T11:37:34.405Z,58.81
2023-05-22T11:40:21.120Z,64.80
2023-05-22T11:43:05.504Z,72.87
2023-05-22T11:45:49.780Z,74.68
2023-05-22T11:48:35.913Z,73.54
2023-05-22T11:51:21.230Z,69.52
2023-05-22T11:54:06.576Z,71.02
2023-05-22T11:56:50.965Z,70.60
2023-05-22T11:59:35.266Z,71.48
2023-05-22T12:02:19.950Z,71.20
2023-05-22T12:05:05.927Z,70.88
2023-05-22T12:07:50.367Z,73.34
2023-05-22T12:10:34.885Z,73.01
2023-05-22T12:13:25.638Z,67.92
2023-05-22T12:16:22.063Z,68.73
2023-05-22T12:19:07.682Z,68.05
2023-05-22T12:21:54.065Z,68.00
2023-05-22T12:24:42.105Z,70.07
2023-05-22T12:27:26.253Z,71.27
2023-05-22T12:30:12.073Z,69.44
2023-05-22T12:32:58.151Z,71.24
2023-05-22T12:35:43.453Z,70.56
2023-05-22T12:38:29.760Z,73.33
2023-05-22T12:41:14.367Z,74.95
2023-05-22T12:43:58.734Z,76.45
2023-05-22T12:46:43.304Z,76.42
2023-05-22T12:49:27.704Z,75.75
2023-05-22T12:52:12.280Z,74.88
2023-05-22T12:54:57.940Z,73.49
2023-05-22T12:57:42.220Z,72.92
2023-05-22T13:00:26.545Z,74.84
2023-05-22T13:03:12.447Z,76.30
2023-05-22T13:05:56.757Z,74.32
2023-05-22T13:08:41.038Z,71.65
2023-05-22T13:11:27.401Z,69.33
2023-05-22T13:14:12.352Z,71.26
2023-05-22T13:16:57.367Z,68.87
2023-05-22T13:19:42.427Z,67.81
2023-05-22T13:22:27.655Z,67.85
2023-05-22T13:25:14.159Z,70.08
2023-05-22T13:28:04.553Z,69.71
2023-05-22T13:30:49.185Z,67.39
2023-05-22T13:33:33.515Z,67.72
2023-05-22T13:36:18.800Z,68.46
2023-05-22T13:39:03.220Z,66.37
2023-05-22T13:41:47.765Z,65.10
2023-05-22T13:44:33.621Z,66.31
2023-05-22T13:47:18.129Z,67.38
2023-05-22T13:50:02.879Z,65.86
2023-05-22T13:52:49.538Z,61.65
2023-05-22T13:55:33.748Z,60.31
2023-05-22T13:58:17.870Z,58.58
2023-05-22T14:01:03.391Z,57.10
2023-05-22T14:03:47.624Z,52.30
2023-05-22T14:06:31.918Z,51.94
2023-05-22T14:09:15.981Z,50.93
2023-05-22T14:11:59.850Z,51.89
2023-05-22T14:14:43.844Z,56.19
2023-05-22T14:17:29.235Z,60.60
2023-05-22T14:20:13.170Z,57.36
2023-05-22T14:22:58.455Z,58.43
2023-05-22T14:25:43.418Z,57.48
2023-05-22T14:28:27.360Z,55.34
2023-05-22T14:31:12.757Z,54.07
2023-05-22T14:33:58.162Z,50.94
2023-05-22T14:36:42.169Z,54.81
2023-05-22T14:39:26.313Z,54.96
2023-05-22T14:42:10.352Z,51.97
2023-05-22T14:44:54.324Z,52.82
2023-05-22T14:47:38.335Z,52.17
2023-05-22T14:50:23.813Z,48.82
2023-05-22T14:53:07.869Z,50.37
2023-05-22T14:55:51.937Z,47.97
2023-05-22T14:58:36.108Z,49.19
2023-05-22T15:01:20.623Z,49.97
2023-05-22T15:04:04.887Z,49.66
2023-05-22T15:06:50.177Z,51.10
2023-05-22T15:09:34.333Z,53.46
2023-05-22T15:12:18.382Z,52.71
2023-05-22T15:15:03.058Z,54.74
2023-05-22T15:17:50.139Z,54.44
2023-05-22T15:20:35.019Z,52.73
2023-05-22T15:23:25.321Z,53.35
2023-05-22T15:26:09.621Z,54.93
2023-05-22T15:28:53.792Z,53.72
2023-05-22T15:31:37.824Z,54.19
2023-05-22T15:34:21.804Z,54.69
2023-05-22T15:37:06.104Z,53.38
2023-05-22T15:39:51.644Z,53.06
2023-05-22T15:42:36.209Z,53.34
2023-05-22T15:45:20.618Z,54.21
2023-05-22T15:48:06.093Z,52.91
2023-05-22T15:50:50.178Z,56.78
2023-05-22T15:53:34.597Z,55.55
2023-05-22T15:56:20.329Z,56.49
2023-05-22T15:59:04.574Z,56.09
2023-05-22T16:01:48.668Z,57.08
2023-05-22T16:04:33.102Z,58.73
2023-05-22T16:07:19.234Z,57.58
2023-05-22T16:10:04.033Z,55.68
2023-05-22T16:12:50.502Z,56.58
2023-05-22T16:15:35.314Z,57.03
2023-05-22T16:18:21.725Z,57.71
2023-05-22T16:21:06.837Z,59.69
2023-05-22T16:23:51.336Z,58.45
2023-05-22T16:26:37.946Z,57.61
2023-05-22T16:29:24.076Z,58.51
2023-05-22T16:32:08.694Z,58.17
2023-05-22T16:34:52.937Z,57.74
2023-05-22T16:37:37.371Z,57.35
2023-05-22T16:40:21.634Z,57.90
2023-05-22T16:43:06.154Z,60.18
2023-05-22T16:45:52.521Z,60.38
2023-05-22T16:48:37.092Z,62.04
2023-05-22T16:51:21.331Z,61.62
2023-05-22T16:54:06.155Z,63.02
2023-05-22T16:56:50.666Z,61.46
2023-05-22T16:59:34.907Z,60.43
2023-05-22T17:02:20.839Z,62.38
2023-05-22T17:05:05.499Z,63.23
2023-05-22T17:07:50.384Z,65.96
2023-05-22T17:10:34.872Z,66.09
2023-05-22T17:13:21.242Z,67.50
2023-05-22T17:16:06.262Z,67.69
2023-05-22T17:18:54.852Z,67.06
2023-05-22T17:21:39.890Z,67.71
2023-05-22T17:24:24.347Z,66.91
2023-05-22T17:27:09.049Z,67.83
2023-05-22T17:29:53.671Z,66.03
2023-05-22T17:32:37.990Z,65.88
2023-05-22T17:35:24.062Z,66.89
2023-05-22T17:38:08.932Z,67.26
2023-05-22T17:40:53.693Z,66.00
2023-05-22T17:43:39.698Z,68.07
2023-05-22T17:46:24.316Z,69.46
2023-05-22T17:49:08.502Z,68.40
2023-05-22T17:51:54.597Z,68.15
2023-05-22T17:54:38.775Z,67.38
2023-05-22T17:57:23.359Z,67.76
2023-05-22T18:00:11.924Z,68.89
2023-05-22T18:02:56.917Z,68.39
2023-05-22T18:05:41.768Z,69.01
2023-05-22T18:08:27.334Z,69.24
2023-05-22T18:11:12.058Z,69.02
2023-05-22T18:13:58.456Z,69.63
2023-05-22T18:16:42.667Z,69.59
2023-05-22T18:19:26.755Z,69.17
2023-05-22T18:22:10.810Z,68.89
2023-05-22T18:24:56.334Z,69.11
2023-05-22T18:27:40.310Z,69.72
2023-05-22T18:30:24.313Z,69.70
2023-05-22T18:33:08.338Z,69.92
2023-05-22T18:35:52.752Z,70.42
2023-05-22T18:38:36.525Z,70.30
2023-05-22T18:41:22.116Z,70.59
2023-05-22T18:44:07.712Z,71.20
2023-05-22T18:46:51.692Z,72.40
2023-05-22T18:49:35.633Z,72.61
2023-05-22T18:52:19.581Z,72.88
2023-05-22T18:55:03.764Z,72.66
2023-05-22T18:57:49.330Z,72.80
2023-05-22T19:00:33.198Z,72.83
2023-05-22T19:03:17.303Z,73.16
2023-05-22T19:06:01.557Z,73.65
2023-05-22T19:08:45.763Z,73.78
2023-05-22T19:11:29.756Z,73.61
2023-05-22T19:14:14.971Z,73.17
2023-05-22T19:17:00.560Z,72.41
2023-05-22T19:19:44.950Z,73.04
2023-05-22T19:22:28.890Z,72.34
2023-05-22T19:25:12.784Z,72.74
2023-05-22T19:27:56.859Z,72.03
2023-05-22T19:30:42.642Z,72.90
2023-05-22T19:33:27.708Z,73.31
2023-05-22T19:36:11.732Z,74.01
2023-05-22T19:38:55.723Z,73.41
2023-05-22T19:41:39.775Z,74.11
2023-05-22T19:44:23.756Z,73.97
2023-05-22T19:47:09.337Z,73.24
2023-05-22T19:49:53.331Z,74.63
2023-05-22T19:52:37.373Z,75.93
2023-05-22T19:55:21.454Z,76.30
2023-05-22T19:58:05.364Z,75.61
2023-05-22T20:00:49.509Z,75.20
2023-05-22T20:03:35.727Z,74.06
2023-05-22T20:06:20.057Z,72.97
2023-05-22T20:09:05.868Z,73.47
2023-05-22T20:11:49.878Z,72.19
2023-05-22T20:14:34.204Z,72.93
2023-05-22T20:17:22.476Z,71.56
2023-05-22T20:20:09.449Z,71.73
2023-05-22T20:22:54.045Z,71.44
2023-05-22T20:25:38.074Z,73.00
2023-05-22T20:28:22.250Z,72.84
2023-05-22T20:31:06.293Z,72.46
2023-05-22T20:33:50.246Z,72.65
2023-05-22T20:36:35.875Z,72.18
2023-05-22T20:39:19.761Z,72.57
2023-05-22T20:42:03.840Z,72.94
2023-05-22T20:44:48.043Z,72.04
2023-05-22T20:47:32.015Z,71.95
2023-05-22T20:50:16.055Z,71.75
2023-05-22T20:53:01.433Z,72.28
2023-05-22T20:55:45.276Z,72.15
2023-05-22T20:58:29.109Z,71.98
2023-05-22T21:01:13.041Z,71.11
2023-05-22T21:03:57.385Z,69.95
2023-05-22T21:06:41.167Z,69.73
2023-05-22T21:09:26.576Z,69.84
2023-05-22T21:12:10.570Z,70.28
2023-05-22T21:14:54.504Z,70.58
2023-05-22T21:17:38.675Z,71.02
2023-05-22T21:20:22.691Z,71.72
2023-05-22T21:23:06.667Z,71.68
2023-05-22T21:25:52.123Z,72.40
2023-05-22T21:28:35.987Z,72.64
2023-05-22T21:31:19.947Z,72.71
2023-05-22T21:34:04.017Z,72.13
2023-05-22T21:36:48.108Z,72.90
2023-05-22T21:39:31.935Z,73.04
2023-05-22T21:42:17.768Z,74.15
2023-05-22T21:45:01.695Z,74.24
2023-05-22T21:47:49.148Z,74.09
2023-05-22T21:50:33.087Z,74.68
2023-05-22T21:53:17.011Z,73.59
2023-05-22T21:56:01.091Z,73.82
2023-05-22T21:58:46.370Z,74.64
2023-05-22T22:01:30.366Z,74.91
2023-05-22T22:04:14.282Z,74.51
2023-05-22T22:06:58.070Z,75.16
2023-05-22T22:09:42.059Z,74.43
2023-05-22T22:12:25.968Z,75.11
2023-05-22T22:15:13.265Z,74.81
2023-05-22T22:17:59.495Z,75.78
2023-05-22T22:20:45.409Z,75.34
2023-05-22T22:23:29.958Z,73.72
2023-05-22T22:26:13.906Z,74.94
2023-05-22T22:28:57.935Z,74.92
2023-05-22T22:31:43.301Z,75.14
2023-05-22T22:34:27.138Z,74.92
2023-05-22T22:37:11.218Z,74.52
2023-05-22T22:39:54.992Z,73.89
2023-05-22T22:42:38.852Z,74.59
2023-05-22T22:45:22.781Z,74.02
2023-05-22T22:48:08.084Z,74.22
2023-05-22T22:50:52.577Z,75.38
2023-05-22T22:53:36.481Z,75.80
2023-05-22T22:56:20.410Z,76.33
2023-05-22T22:59:04.340Z,77.03
2023-05-22T23:01:48.437Z,77.04
2023-05-22T23:04:33.902Z,77.15
2023-05-22T23:07:17.891Z,77.60
2023-05-22T23:10:01.786Z,77.00
2023-05-22T23:12:50.140Z,77.04
2023-05-22T23:15:34.846Z,77.33
2023-05-22T23:18:19.004Z,77.41
2023-05-22T23:21:04.194Z,76.39
2023-05-22T23:23:48.017Z,76.31
2023-05-22T23:26:32.060Z,75.93
2023-05-22T23:29:16.336Z,75.67
2023-05-22T23:32:00.303Z,75.76
2023-05-22T23:34:44.522Z,74.94
2023-05-22T23:37:29.759Z,76.22
2023-05-22T23:40:14.332Z,75.68
2023-05-22T23:42:58.215Z,74.90
2023-05-22T23:45:42.342Z,74.63
2023-05-22T23:48:26.433Z,74.91
2023-05-22T23:51:14.466Z,75.29
2023-05-22T23:54:00.029Z,75.03
2023-05-22T23:56:44.015Z,75.20
2023-05-22T23:59:27.838Z,74.67
